createdAt,value
2024-02-26T00:02:20.534Z,88.31
2024-02-26T00:04:49.894Z,88.84
2024-02-26T00:07:17.939Z,88.90
2024-02-26T00:09:45.884Z,88.15
2024-02-26T00:12:13.896Z,88.00
2024-02-26T00:14:42.443Z,88.13
2024-02-26T00:17:10.418Z,87.76
2024-02-26T00:19:38.500Z,88.13
2024-02-26T00:22:07.885Z,87.38
2024-02-26T00:24:35.878Z,87.48
2024-02-26T00:27:04.592Z,87.43
2024-02-26T00:29:33.557Z,87.58
2024-02-26T00:32:01.552Z,87.01
2024-02-26T00:34:29.697Z,87.22
2024-02-26T00:36:57.713Z,87.45
2024-02-26T00:39:27.078Z,87.11
2024-02-26T00:41:55.083Z,86.96
2024-02-26T00:44:23.153Z,86.45
2024-02-26T00:46:51.165Z,86.92
2024-02-26T00:49:19.182Z,87.19
2024-02-26T00:51:47.141Z,87.65
2024-02-26T00:54:15.194Z,87.01
2024-02-26T00:56:44.539Z,86.50
2024-02-26T00:59:12.562Z,87.36
2024-02-26T01:01:40.585Z,87.10
2024-02-26T01:04:08.698Z,87.63
2024-02-26T01:06:36.862Z,87.53
2024-02-26T01:09:05.129Z,87.27
2024-02-26T01:11:33.163Z,87.98
2024-02-26T01:14:02.494Z,88.20
2024-02-26T01:16:32.026Z,86.84
2024-02-26T01:19:00.191Z,87.94
2024-02-26T01:21:30.488Z,87.18
2024-02-26T01:23:58.546Z,87.88
2024-02-26T01:26:26.551Z,87.63
2024-02-26T01:28:56.077Z,87.70
2024-02-26T01:31:25.356Z,87.37
2024-02-26T01:33:53.978Z,87.18
2024-02-26T01:36:22.341Z,87.02
2024-02-26T01:38:50.338Z,86.75
2024-02-26T01:41:18.434Z,87.22
2024-02-26T01:43:46.396Z,87.42
2024-02-26T01:46:16.264Z,86.90
2024-02-26T01:48:46.701Z,86.85
2024-02-26T01:51:15.947Z,86.68
2024-02-26T01:53:44.475Z,87.01
2024-02-26T01:56:12.947Z,86.87
2024-02-26T01:58:40.958Z,87.47
2024-02-26T02:01:09.017Z,88.32
2024-02-26T02:03:37.110Z,87.56
2024-02-26T02:06:06.853Z,87.79
2024-02-26T02:08:36.241Z,87.98
2024-02-26T02:11:04.539Z,87.94
2024-02-26T02:13:32.538Z,87.70
2024-02-26T02:16:00.494Z,87.71
2024-02-26T02:18:28.487Z,88.29
2024-02-26T02:21:00.670Z,87.43
2024-02-26T02:23:28.666Z,87.94
2024-02-26T02:25:57.266Z,87.46
2024-02-26T02:28:26.258Z,87.80
2024-02-26T02:30:54.511Z,87.87
2024-02-26T02:33:23.268Z,87.66
2024-02-26T02:35:53.493Z,88.14
2024-02-26T02:38:24.406Z,88.25
2024-02-26T02:40:52.369Z,88.55
2024-02-26T02:43:20.329Z,88.15
2024-02-26T02:45:48.290Z,88.99
2024-02-26T02:48:16.428Z,89.58
2024-02-26T02:50:44.750Z,89.55
2024-02-26T02:53:12.766Z,89.81
2024-02-26T02:55:42.101Z,89.19
2024-02-26T02:58:10.206Z,89.33
2024-02-26T03:00:38.267Z,89.27
2024-02-26T03:03:07.501Z,88.63
2024-02-26T03:05:35.502Z,88.95
2024-02-26T03:08:03.504Z,89.46
2024-02-26T03:10:31.485Z,90.23
2024-02-26T03:13:00.794Z,90.20
2024-02-26T03:15:28.801Z,90.90
2024-02-26T03:17:56.870Z,90.12
2024-02-26T03:20:24.882Z,89.33
2024-02-26T03:22:52.892Z,89.34
2024-02-26T03:25:20.866Z,89.63
2024-02-26T03:27:48.817Z,89.58
2024-02-26T03:30:18.283Z,89.27
2024-02-26T03:32:46.661Z,89.61
2024-02-26T03:35:14.956Z,89.11
2024-02-26T03:37:42.963Z,89.90
2024-02-26T03:40:14.080Z,90.10
2024-02-26T03:42:42.056Z,90.01
2024-02-26T03:45:11.166Z,90.07
2024-02-26T03:47:41.627Z,91.26
2024-02-26T03:50:10.441Z,90.85
2024-02-26T03:52:38.590Z,91.44
2024-02-26T03:55:07.037Z,91.14
2024-02-26T03:57:35.018Z,90.85
2024-02-26T04:00:04.393Z,92.46
2024-02-26T04:02:38.867Z,92.04
2024-02-26T04:05:11.969Z,92.44
2024-02-26T04:07:39.937Z,92.29
2024-02-26T04:10:11.361Z,92.44
2024-02-26T04:12:40.738Z,91.70
2024-02-26T04:15:09.671Z,91.93
2024-02-26T04:17:38.242Z,92.61
2024-02-26T04:20:09.377Z,91.72
2024-02-26T04:22:37.332Z,91.98
2024-02-26T04:25:05.713Z,91.29
2024-02-26T04:27:33.768Z,91.78
2024-02-26T04:30:02.063Z,91.04
2024-02-26T04:32:30.254Z,91.28
2024-02-26T04:34:58.338Z,91.86
2024-02-26T04:37:31.995Z,91.77
2024-02-26T04:40:00.992Z,92.06
2024-02-26T04:42:29.065Z,91.54
2024-02-26T04:44:57.452Z,91.95
2024-02-26T04:47:25.582Z,91.66
2024-02-26T04:49:54.083Z,90.91
2024-02-26T04:52:22.861Z,91.19
2024-02-26T04:54:52.474Z,91.84
2024-02-26T04:57:20.476Z,91.98
2024-02-26T04:59:48.550Z,91.73
2024-02-26T05:02:16.976Z,92.01
2024-02-26T05:04:45.065Z,91.85
2024-02-26T05:07:13.726Z,92.39
2024-02-26T05:09:43.285Z,92.35
2024-02-26T05:12:12.914Z,92.18
2024-02-26T05:14:41.490Z,92.41
2024-02-26T05:17:09.524Z,91.96
2024-02-26T05:19:37.586Z,92.89
2024-02-26T05:22:05.671Z,93.02
2024-02-26T05:24:33.676Z,92.63
2024-02-26T05:27:02.207Z,92.88
2024-02-26T05:29:32.001Z,93.29
2024-02-26T05:32:00.000Z,92.62
2024-02-26T05:34:28.139Z,92.16
2024-02-26T05:36:56.280Z,92.52
2024-02-26T05:39:24.400Z,92.37
2024-02-26T05:41:52.425Z,92.45
2024-02-26T05:44:20.496Z,92.44
2024-02-26T05:46:49.840Z,92.32
2024-02-26T05:49:17.953Z,91.69
2024-02-26T05:51:46.015Z,92.31
2024-02-26T05:54:14.091Z,92.41
2024-02-26T05:56:42.155Z,91.67
2024-02-26T05:59:10.188Z,92.02
2024-02-26T06:01:38.232Z,90.94
2024-02-26T06:04:07.643Z,90.60
2024-02-26T06:06:35.892Z,91.37
2024-02-26T06:09:06.365Z,90.61
2024-02-26T06:11:34.458Z,90.88
2024-02-26T06:14:04.238Z,91.29
2024-02-26T06:16:32.761Z,90.60
2024-02-26T06:19:01.607Z,91.34
2024-02-26T06:21:31.294Z,91.15
2024-02-26T06:24:00.308Z,90.89
2024-02-26T06:26:29.957Z,91.43
2024-02-26T06:28:58.076Z,91.51
2024-02-26T06:31:28.653Z,91.67
2024-02-26T06:33:57.168Z,91.64
2024-02-26T06:36:25.538Z,91.23
2024-02-26T06:38:55.920Z,91.67
2024-02-26T06:41:28.287Z,92.12
2024-02-26T06:43:56.412Z,91.77
2024-02-26T06:46:24.418Z,92.13
2024-02-26T06:48:55.709Z,91.89
2024-02-26T06:51:24.410Z,92.37
2024-02-26T06:53:53.950Z,92.27
2024-02-26T06:56:21.928Z,91.70
2024-02-26T06:58:49.939Z,92.10
2024-02-26T07:01:17.945Z,91.36
2024-02-26T07:03:46.074Z,91.45
2024-02-26T07:06:15.235Z,92.08
2024-02-26T07:08:43.307Z,91.00
2024-02-26T07:11:12.873Z,91.98
2024-02-26T07:13:40.882Z,91.66
2024-02-26T07:16:11.352Z,91.58
2024-02-26T07:18:39.968Z,90.50
2024-02-26T07:21:08.138Z,90.66
2024-02-26T07:23:36.168Z,91.40
2024-02-26T07:26:04.550Z,90.60
2024-02-26T07:28:33.886Z,91.63
2024-02-26T07:31:01.866Z,91.38
2024-02-26T07:33:29.944Z,90.08
2024-02-26T07:35:58.108Z,90.13
2024-02-26T07:38:32.446Z,90.31
2024-02-26T07:41:10.055Z,89.20
2024-02-26T07:43:39.518Z,89.03
2024-02-26T07:46:07.910Z,89.41
2024-02-26T07:48:36.149Z,89.06
2024-02-26T07:51:05.575Z,90.02
2024-02-26T07:53:33.740Z,90.36
2024-02-26T07:56:01.839Z,90.14
2024-02-26T07:58:29.911Z,90.10
2024-02-26T08:00:59.321Z,89.67
2024-02-26T08:03:27.510Z,88.86
2024-02-26T08:05:56.307Z,89.30
2024-02-26T08:08:24.529Z,89.69
2024-02-26T08:10:52.598Z,88.97
2024-02-26T08:13:21.016Z,88.83
2024-02-26T08:15:49.031Z,89.44
2024-02-26T08:18:18.451Z,88.95
2024-02-26T08:20:47.188Z,89.17
2024-02-26T08:23:15.299Z,88.93
2024-02-26T08:25:43.245Z,87.72
2024-02-26T08:28:12.408Z,87.78
2024-02-26T08:30:40.430Z,86.60
2024-02-26T08:33:08.511Z,85.97
2024-02-26T08:35:38.022Z,86.26
2024-02-26T08:38:06.368Z,85.02
2024-02-26T08:40:34.454Z,84.25
2024-02-26T08:43:02.516Z,83.30
2024-02-26T08:45:31.066Z,83.19
2024-02-26T08:47:59.841Z,82.81
2024-02-26T08:50:28.032Z,82.22
2024-02-26T08:52:57.444Z,81.98
2024-02-26T08:55:25.509Z,82.33
2024-02-26T08:57:53.821Z,81.98
2024-02-26T09:00:22.226Z,82.18
2024-02-26T09:02:50.629Z,82.05
2024-02-26T09:05:18.840Z,81.01
2024-02-26T09:07:47.526Z,80.82
2024-02-26T09:10:17.133Z,81.17
2024-02-26T09:12:45.372Z,81.09
2024-02-26T09:15:13.949Z,80.15
2024-02-26T09:17:42.167Z,79.47
2024-02-26T09:20:11.409Z,79.30
2024-02-26T09:22:40.045Z,79.29
2024-02-26T09:25:08.753Z,79.15
2024-02-26T09:27:40.869Z,77.85
2024-02-26T09:30:12.008Z,77.92
2024-02-26T09:32:40.577Z,77.55
2024-02-26T09:35:09.442Z,77.70
2024-02-26T09:37:38.144Z,76.88
2024-02-26T09:40:07.329Z,76.55
2024-02-26T09:42:38.270Z,77.38
2024-02-26T09:45:09.793Z,77.94
2024-02-26T09:47:38.865Z,78.34
2024-02-26T09:50:10.150Z,78.26
2024-02-26T09:52:40.175Z,77.43
2024-02-26T09:55:10.287Z,77.51
2024-02-26T09:57:40.280Z,76.72
2024-02-26T10:00:12.747Z,75.81
2024-02-26T10:02:41.306Z,76.14
2024-02-26T10:05:12.494Z,75.41
2024-02-26T10:07:40.615Z,75.19
2024-02-26T10:10:09.283Z,72.96
2024-02-26T10:12:37.307Z,72.37
2024-02-26T10:15:07.486Z,71.58
2024-02-26T10:17:36.103Z,70.41
2024-02-26T10:20:14.733Z,72.11
2024-02-26T10:22:43.253Z,70.36
2024-02-26T10:25:11.313Z,69.12
2024-02-26T10:27:39.354Z,68.91
2024-02-26T10:30:19.663Z,68.79
2024-02-26T10:32:48.939Z,68.94
2024-02-26T10:35:18.847Z,69.18
2024-02-26T10:37:48.422Z,68.81
2024-02-26T10:40:17.265Z,69.72
2024-02-26T10:42:46.680Z,69.49
2024-02-26T10:45:16.336Z,70.29
2024-02-26T10:47:44.843Z,69.23
2024-02-26T10:50:15.334Z,69.42
2024-02-26T10:52:44.190Z,68.84
2024-02-26T10:55:19.258Z,69.30
2024-02-26T10:57:47.854Z,67.59
2024-02-26T11:00:18.364Z,68.18
2024-02-26T11:02:46.568Z,68.71
2024-02-26T11:05:14.713Z,68.48
2024-02-26T11:07:44.030Z,69.18
2024-02-26T11:10:13.765Z,67.76
2024-02-26T11:12:42.142Z,68.00
2024-02-26T11:15:11.372Z,68.41
2024-02-26T11:17:40.972Z,66.74
2024-02-26T11:20:14.052Z,68.27
2024-02-26T11:22:42.375Z,66.90
2024-02-26T11:25:12.389Z,68.13
2024-02-26T11:27:43.421Z,67.80
2024-02-26T11:30:12.908Z,67.32
2024-02-26T11:32:42.396Z,66.04
2024-02-26T11:35:11.750Z,65.69
2024-02-26T11:37:41.648Z,65.89
2024-02-26T11:40:13.934Z,66.21
2024-02-26T11:42:46.306Z,66.17
2024-02-26T11:45:49.131Z,66.01
2024-02-26T11:48:19.792Z,66.13
2024-02-26T11:50:49.961Z,66.43
2024-02-26T11:53:28.608Z,66.13
2024-02-26T11:56:28.126Z,66.61
2024-02-26T11:59:07.937Z,66.06
2024-02-26T12:01:43.409Z,66.01
2024-02-26T12:04:16.944Z,64.78
2024-02-26T12:06:47.372Z,64.90
2024-02-26T12:09:15.889Z,65.18
2024-02-26T12:11:44.692Z,64.53
2024-02-26T12:14:12.794Z,65.06
2024-02-26T12:16:41.397Z,64.75
2024-02-26T12:19:11.126Z,63.69
2024-02-26T12:21:40.603Z,61.90
2024-02-26T12:24:15.805Z,62.49
2024-02-26T12:26:44.140Z,61.24
2024-02-26T12:29:13.117Z,61.65
2024-02-26T12:31:41.597Z,60.15
2024-02-26T12:34:11.656Z,59.60
2024-02-26T12:36:41.636Z,60.16
2024-02-26T12:39:10.686Z,59.54
2024-02-26T12:41:40.341Z,59.94
2024-02-26T12:44:10.094Z,60.77
2024-02-26T12:46:38.105Z,58.49
2024-02-26T12:49:06.540Z,57.62
2024-02-26T12:51:35.513Z,56.19
2024-02-26T12:54:05.222Z,56.25
2024-02-26T12:56:33.526Z,56.16
2024-02-26T12:59:01.654Z,57.39
2024-02-26T13:01:30.027Z,58.05
2024-02-26T13:03:58.573Z,57.73
2024-02-26T13:06:26.810Z,58.44
2024-02-26T13:08:59.323Z,57.88
2024-02-26T13:11:30.082Z,56.82
2024-02-26T13:13:59.004Z,56.53
2024-02-26T13:16:27.561Z,56.70
2024-02-26T13:18:55.664Z,56.69
2024-02-26T13:21:25.793Z,56.27
2024-02-26T13:23:55.899Z,58.03
2024-02-26T13:26:25.650Z,56.37
2024-02-26T13:29:04.495Z,57.51
2024-02-26T13:31:32.626Z,55.79
2024-02-26T13:34:00.856Z,56.72
2024-02-26T13:36:29.134Z,56.44
2024-02-26T13:38:58.255Z,57.17
2024-02-26T13:41:26.455Z,57.44
2024-02-26T13:43:55.037Z,56.04
2024-02-26T13:46:24.396Z,54.88
2024-02-26T13:48:52.535Z,56.73
2024-02-26T13:51:20.628Z,56.79
2024-02-26T13:53:48.684Z,55.81
2024-02-26T13:56:16.919Z,57.10
2024-02-26T13:58:44.946Z,56.69
2024-02-26T14:01:13.082Z,57.65
2024-02-26T14:03:42.552Z,58.27
2024-02-26T14:06:10.937Z,57.78
2024-02-26T14:08:39.029Z,56.12
2024-02-26T14:11:07.176Z,58.54
2024-02-26T14:13:38.382Z,58.30
2024-02-26T14:16:08.204Z,57.85
2024-02-26T14:18:36.348Z,59.03
2024-02-26T14:21:06.194Z,59.20
2024-02-26T14:23:34.414Z,59.08
2024-02-26T14:26:02.779Z,56.60
2024-02-26T14:28:36.413Z,57.67
2024-02-26T14:31:08.448Z,58.35
2024-02-26T14:33:36.686Z,57.59
2024-02-26T14:36:07.125Z,57.92
2024-02-26T14:38:35.298Z,58.20
2024-02-26T14:41:03.508Z,57.85
2024-02-26T14:43:33.003Z,59.44
2024-02-26T14:46:01.307Z,59.38
2024-02-26T14:48:30.765Z,58.85
2024-02-26T14:50:58.917Z,59.53
2024-02-26T14:53:28.452Z,58.32
2024-02-26T14:55:56.476Z,58.64
2024-02-26T14:58:24.502Z,58.90
2024-02-26T15:00:53.763Z,59.77
2024-02-26T15:03:21.910Z,59.74
2024-02-26T15:05:50.145Z,60.88
2024-02-26T15:08:18.909Z,61.32
2024-02-26T15:10:49.973Z,61.36
2024-02-26T15:13:19.456Z,62.50
2024-02-26T15:15:48.369Z,62.78
2024-02-26T15:18:18.198Z,62.95
2024-02-26T15:20:47.416Z,62.27
2024-02-26T15:23:15.936Z,62.95
2024-02-26T15:25:44.332Z,63.05
2024-02-26T15:28:16.230Z,63.74
2024-02-26T15:30:45.244Z,63.76
2024-02-26T15:33:14.536Z,64.03
2024-02-26T15:35:46.127Z,64.13
2024-02-26T15:38:15.798Z,64.24
2024-02-26T15:40:45.696Z,63.92
2024-02-26T15:43:16.522Z,63.77
2024-02-26T15:45:45.052Z,64.03
2024-02-26T15:48:13.656Z,64.51
2024-02-26T15:50:43.520Z,64.65
2024-02-26T15:53:12.094Z,63.91
2024-02-26T15:55:41.243Z,64.71
2024-02-26T15:58:11.975Z,65.36
2024-02-26T16:00:45.327Z,64.89
2024-02-26T16:03:13.814Z,65.91
2024-02-26T16:05:42.747Z,65.73
2024-02-26T16:08:21.775Z,65.69
2024-02-26T16:10:50.750Z,65.73
2024-02-26T16:13:21.237Z,65.92
2024-02-26T16:15:53.600Z,65.78
2024-02-26T16:18:22.584Z,65.45
2024-02-26T16:20:51.412Z,65.21
2024-02-26T16:23:19.909Z,64.38
2024-02-26T16:25:51.358Z,64.85
2024-02-26T16:28:22.631Z,65.35
2024-02-26T16:30:53.188Z,64.92
2024-02-26T16:33:21.330Z,64.96
2024-02-26T16:35:49.432Z,64.66
2024-02-26T16:38:17.499Z,64.61
2024-02-26T16:40:45.562Z,65.37
2024-02-26T16:43:13.522Z,64.71
2024-02-26T16:45:41.777Z,65.43
2024-02-26T16:48:11.240Z,65.44
2024-02-26T16:50:39.360Z,65.30
2024-02-26T16:53:07.519Z,65.23
2024-02-26T16:55:35.533Z,65.51
2024-02-26T16:58:03.606Z,65.70
2024-02-26T17:00:31.635Z,65.68
2024-02-26T17:03:01.710Z,65.73
2024-02-26T17:05:31.107Z,65.63
2024-02-26T17:07:59.143Z,65.96
2024-02-26T17:10:27.176Z,66.62
2024-02-26T17:12:55.167Z,66.44
2024-02-26T17:15:23.237Z,67.65
2024-02-26T17:17:51.476Z,67.22
2024-02-26T17:20:20.011Z,66.92
2024-02-26T17:22:49.447Z,67.48
2024-02-26T17:25:18.412Z,67.32
2024-02-26T17:27:46.396Z,66.75
2024-02-26T17:30:14.699Z,67.29
2024-02-26T17:32:42.832Z,67.54
2024-02-26T17:35:15.071Z,67.37
2024-02-26T17:37:43.191Z,68.17
2024-02-26T17:40:13.883Z,67.30
2024-02-26T17:42:41.972Z,67.39
2024-02-26T17:45:10.883Z,67.74
2024-02-26T17:47:39.095Z,68.31
2024-02-26T17:50:08.127Z,68.02
2024-02-26T17:52:37.932Z,68.40
2024-02-26T17:55:06.999Z,68.54
2024-02-26T17:57:36.524Z,68.56
2024-02-26T18:00:06.345Z,68.77
2024-02-26T18:02:34.790Z,68.44
2024-02-26T18:05:02.874Z,68.79
2024-02-26T18:07:31.174Z,68.21
2024-02-26T18:09:59.477Z,68.96
2024-02-26T18:12:27.791Z,68.52
2024-02-26T18:14:57.222Z,68.94
2024-02-26T18:17:25.331Z,69.16
2024-02-26T18:19:53.659Z,68.98
2024-02-26T18:22:22.292Z,69.30
2024-02-26T18:24:50.329Z,69.16
2024-02-26T18:27:18.336Z,68.68
2024-02-26T18:29:46.405Z,69.62
2024-02-26T18:32:16.962Z,69.47
2024-02-26T18:34:46.111Z,68.73
2024-02-26T18:37:14.341Z,68.40
2024-02-26T18:39:42.575Z,69.18
2024-02-26T18:42:12.264Z,69.10
2024-02-26T18:44:41.627Z,69.56
2024-02-26T18:47:09.729Z,69.70
2024-02-26T18:49:42.958Z,69.20
2024-02-26T18:52:11.204Z,70.11
2024-02-26T18:54:40.390Z,70.10
2024-02-26T18:57:08.875Z,70.47
2024-02-26T18:59:37.569Z,70.87
2024-02-26T19:02:06.397Z,70.21
2024-02-26T19:04:34.387Z,71.11
2024-02-26T19:07:04.000Z,70.18
2024-02-26T19:09:32.194Z,71.00
2024-02-26T19:12:00.269Z,70.81
2024-02-26T19:14:28.743Z,70.81
2024-02-26T19:16:56.701Z,71.41
2024-02-26T19:19:25.010Z,71.38
2024-02-26T19:21:54.160Z,70.87
2024-02-26T19:24:23.612Z,70.83
2024-02-26T19:26:51.752Z,70.91
2024-02-26T19:29:19.801Z,71.02
2024-02-26T19:31:47.853Z,71.13
2024-02-26T19:34:16.027Z,70.27
2024-02-26T19:36:44.651Z,70.88
2024-02-26T19:39:12.768Z,70.61
2024-02-26T19:41:42.190Z,69.64
2024-02-26T19:44:13.398Z,70.55
2024-02-26T19:46:41.490Z,70.49
2024-02-26T19:49:11.842Z,71.29
2024-02-26T19:51:41.885Z,70.35
2024-02-26T19:54:10.008Z,71.12
2024-02-26T19:56:37.999Z,70.93
2024-02-26T19:59:07.369Z,71.08
2024-02-26T20:01:35.559Z,70.26
2024-02-26T20:04:03.642Z,71.34
2024-02-26T20:06:32.537Z,70.89
2024-02-26T20:09:00.806Z,70.88
2024-02-26T20:11:28.805Z,70.54
2024-02-26T20:13:56.860Z,70.58
2024-02-26T20:16:26.188Z,70.61
2024-02-26T20:18:54.576Z,71.37
2024-02-26T20:21:22.672Z,71.28
2024-02-26T20:23:50.827Z,71.22
2024-02-26T20:26:18.916Z,71.84
2024-02-26T20:28:46.967Z,70.95
2024-02-26T20:31:14.942Z,71.54
2024-02-26T20:33:44.878Z,71.59
2024-02-26T20:36:13.034Z,72.40
2024-02-26T20:38:41.156Z,71.51
2024-02-26T20:41:09.255Z,72.21
2024-02-26T20:43:37.262Z,71.79
2024-02-26T20:46:06.026Z,71.92
2024-02-26T20:48:34.316Z,71.92
2024-02-26T20:51:05.264Z,72.18
2024-02-26T20:53:33.331Z,72.95
2024-02-26T20:56:01.572Z,72.97
2024-02-26T20:58:29.580Z,73.95
2024-02-26T21:00:57.596Z,73.76
2024-02-26T21:03:25.726Z,73.70
2024-02-26T21:05:53.906Z,74.58
2024-02-26T21:08:32.469Z,74.25
2024-02-26T21:11:06.972Z,74.01
2024-02-26T21:13:38.147Z,74.39
2024-02-26T21:16:07.206Z,74.51
2024-02-26T21:18:37.768Z,74.65
2024-02-26T21:21:06.919Z,74.18
2024-02-26T21:23:37.196Z,74.35
2024-02-26T21:26:05.653Z,74.08
2024-02-26T21:28:33.657Z,74.84
2024-02-26T21:31:01.904Z,74.59
2024-02-26T21:33:30.121Z,74.63
2024-02-26T21:35:58.895Z,75.41
2024-02-26T21:38:32.659Z,74.88
2024-02-26T21:41:09.254Z,74.90
2024-02-26T21:43:39.112Z,75.10
2024-02-26T21:46:07.791Z,75.73
2024-02-26T21:48:39.450Z,75.68
2024-02-26T21:51:08.154Z,75.08
2024-02-26T21:53:36.198Z,75.45
2024-02-26T21:56:07.700Z,75.02
2024-02-26T21:58:37.691Z,75.29
2024-02-26T22:01:06.174Z,75.20
2024-02-26T22:03:34.664Z,75.54
2024-02-26T22:06:02.761Z,75.14
2024-02-26T22:08:30.779Z,75.50
2024-02-26T22:10:58.860Z,75.46
2024-02-26T22:13:26.951Z,75.55
2024-02-26T22:15:56.326Z,75.90
2024-02-26T22:18:24.454Z,75.98
2024-02-26T22:20:52.591Z,76.18
2024-02-26T22:23:20.625Z,75.42
2024-02-26T22:25:48.774Z,75.32
2024-02-26T22:28:16.752Z,75.71
2024-02-26T22:30:45.333Z,75.59
2024-02-26T22:33:15.101Z,75.30
2024-02-26T22:35:43.372Z,75.40
2024-02-26T22:38:11.690Z,75.27
2024-02-26T22:40:39.917Z,75.29
2024-02-26T22:43:08.431Z,74.93
2024-02-26T22:45:36.602Z,75.53
2024-02-26T22:48:05.459Z,75.72
2024-02-26T22:50:34.904Z,76.28
2024-02-26T22:53:02.918Z,76.50
2024-02-26T22:55:30.883Z,76.19
2024-02-26T22:57:59.441Z,76.06
2024-02-26T23:00:28.306Z,76.56
2024-02-26T23:02:56.728Z,76.82
2024-02-26T23:05:25.845Z,77.33
2024-02-26T23:07:56.467Z,77.43
2024-02-26T23:10:25.178Z,77.53
2024-02-26T23:12:53.823Z,77.40
2024-02-26T23:15:22.267Z,77.08
2024-02-26T23:17:50.436Z,77.42
2024-02-26T23:20:18.490Z,77.05
2024-02-26T23:22:48.302Z,77.47
2024-02-26T23:25:19.909Z,77.39
2024-02-26T23:27:48.951Z,77.74
2024-02-26T23:30:19.125Z,78.08
2024-02-26T23:32:47.419Z,78.15
2024-02-26T23:35:15.452Z,78.01
2024-02-26T23:37:43.423Z,77.86
2024-02-26T23:40:12.155Z,77.82
2024-02-26T23:42:41.658Z,78.20
2024-02-26T23:45:10.464Z,78.37
2024-02-26T23:47:38.618Z,78.64
2024-02-26T23:50:07.906Z,78.39
2024-02-26T23:52:35.993Z,79.17
2024-02-26T23:55:04.089Z,79.01
2024-02-26T23:57:32.414Z,78.80
